Time;durP1;ratioP1;P1;durP2;ratioP2;P2;SDS_P1;SDS_P2;PMS_P1;PMS_P2;Temp;Humidity;BMP_temperature;BMP_pressure;BME280_temperature;BME280_humidity;BME280_pressure;Samples;Min_cycle;Max_cycle;Signal;HPM_P1;HPM_P2
2021/04/24 00:02:25;;;;;;;;;;;;;;;3.67;100.00;101700.03;5094088;28;20460;-69
2021/04/24 00:04:51;;;;;;;;;;;;;;;3.63;100.00;101692.13;5093645;28;20034;-68
2021/04/24 00:07:18;;;;;;;;;;;;;;;3.54;100.00;101689.78;5093405;28;20287;-68
2021/04/24 00:09:44;;;;;;;;;;;;;;;3.44;100.00;101687.44;5094252;28;20373;-68
2021/04/24 00:12:10;;;;;;;;;;;;;;;3.37;100.00;101690.38;5093778;28;20205;-68
2021/04/24 00:14:37;;;;;;;;;;;;;;;3.31;100.00;101683.44;5093657;28;19924;-69
2021/04/24 00:17:03;;;;;;;;;;;;;;;3.23;100.00;101693.56;5093757;28;20279;-68
2021/04/24 00:19:29;;;;;;;;;;;;;;;3.10;100.00;101691.31;5093877;28;19932;-68
2021/04/24 00:21:55;;;;;;;;;;;;;;;3.08;100.00;101698.53;5093937;28;19924;-69
2021/04/24 00:24:20;;;;;;;;;;;;;;;3.02;100.00;101693.41;5093010;28;19924;-69
2021/04/24 00:26:46;;;;;;;;;;;;;;;2.97;100.00;101695.34;5093878;28;19924;-69
2021/04/24 00:29:12;;;;;;;;;;;;;;;2.95;100.00;101697.19;5075584;28;19932;-69
2021/04/24 00:31:39;;;;;;;;;;;;;;;2.89;100.00;101697.44;5093728;28;20319;-69
2021/04/24 00:34:05;;;;;;;;;;;;;;;2.84;100.00;101686.84;5074751;28;20011;-69
2021/04/24 00:36:31;;;;;;;;;;;;;;;2.78;100.00;101684.34;5093151;28;20399;-68
2021/04/24 00:38:57;;;;;;;;;;;;;;;2.71;100.00;101688.16;5093421;28;20023;-68
2021/04/24 00:41:23;;;;;;;;;;;;;;;2.71;100.00;101691.72;5093526;28;19928;-69
2021/04/24 00:43:49;;;;;;;;;;;;;;;2.65;100.00;101687.44;5092782;28;19924;-68
2021/04/24 00:46:15;;;;;;;;;;;;;;;2.61;100.00;101687.59;5075324;28;19985;-68
2021/04/24 00:48:42;;;;;;;;;;;;;;;2.51;100.00;101693.25;5093522;28;19928;-69
2021/04/24 00:51:08;;;;;;;;;;;;;;;2.46;100.00;101687.16;5075372;28;19924;-69
2021/04/24 00:53:34;;;;;;;;;;;;;;;2.40;100.00;101684.66;5092521;28;19924;-68
2021/04/24 00:56:00;;;;;;;;;;;;;;;2.44;100.00;101677.41;5093020;28;19924;-68
2021/04/24 00:58:26;;;;;;;;;;;;;;;2.41;100.00;101681.06;5093454;28;20396;-68
2021/04/24 01:00:52;;;;;;;;;;;;;;;2.40;100.00;101690.03;5093084;28;20026;-69
2021/04/24 01:03:18;;;;;;;;;;;;;;;2.44;100.00;101685.47;5092372;28;19947;-68
2021/04/24 01:05:45;;;;;;;;;;;;;;;2.45;100.00;101679.19;5092113;28;19983;-69
2021/04/24 01:08:11;;;;;;;;;;;;;;;2.46;100.00;101681.81;5093241;28;19924;-69
2021/04/24 01:10:38;;;;;;;;;;;;;;;2.54;100.00;101672.63;5092969;28;19932;-69
2021/04/24 01:13:05;;;;;;;;;;;;;;;2.59;100.00;101673.34;5092117;28;19924;-69
2021/04/24 01:15:31;;;;;;;;;;;;;;;2.66;100.00;101670.44;5092462;28;19924;-68
2021/04/24 01:17:57;;;;;;;;;;;;;;;2.71;100.00;101670.25;5092771;28;19990;-68
2021/04/24 01:20:23;;;;;;;;;;;;;;;2.72;100.00;101673.84;5092942;28;20288;-68
2021/04/24 01:22:50;;;;;;;;;;;;;;;2.72;100.00;101676.53;5074195;28;19924;-68
2021/04/24 01:25:17;;;;;;;;;;;;;;;2.71;100.00;101677.44;5074134;28;19924;-69
2021/04/24 01:27:45;;;;;;;;;;;;;;;2.73;100.00;101673.78;5092810;28;19968;-69
2021/04/24 01:30:11;;;;;;;;;;;;;;;2.72;100.00;101680.06;5092371;28;19927;-68
2021/04/24 01:32:38;;;;;;;;;;;;;;;2.71;100.00;101683.66;5092416;28;19924;-68
2021/04/24 01:35:05;;;;;;;;;;;;;;;2.73;100.00;101678.28;5091914;28;20418;-69
2021/04/24 01:37:30;;;;;;;;;;;;;;;2.69;100.00;101677.50;5092476;28;20399;-69
2021/04/24 01:39:57;;;;;;;;;;;;;;;2.68;100.00;101678.41;5092282;28;19946;-69
2021/04/24 01:42:23;;;;;;;;;;;;;;;2.62;100.00;101682.19;5092455;28;20379;-68
2021/04/24 01:44:49;;;;;;;;;;;;;;;2.59;100.00;101673.34;5091932;28;19986;-69
2021/04/24 01:47:14;;;;;;;;;;;;;;;2.58;100.00;101671.59;5091908;28;19928;-69
2021/04/24 01:49:40;;;;;;;;;;;;;;;2.61;100.00;101674.19;5092416;28;20422;-69
2021/04/24 01:52:06;;;;;;;;;;;;;;;2.61;100.00;101674.19;5091882;28;19931;-68
2021/04/24 01:54:32;;;;;;;;;;;;;;;2.59;100.00;101668.00;5091518;28;20425;-69
2021/04/24 01:56:59;;;;;;;;;;;;;;;2.54;100.00;101673.53;5073795;28;20440;-68
2021/04/24 01:59:26;;;;;;;;;;;;;;;2.51;100.00;101676.28;5091951;28;19930;-69
2021/04/24 02:01:53;;;;;;;;;;;;;;;2.47;100.00;101674.63;5092252;28;19928;-68
2021/04/24 02:04:23;;;;;;;;;;;;;;;2.46;100.00;101665.72;5091125;28;19935;-68
2021/04/24 02:06:49;;;;;;;;;;;;;;;2.46;100.00;101675.56;5073583;28;19924;-68
2021/04/24 02:09:17;;;;;;;;;;;;;;;2.44;100.00;101669.38;5091560;28;19928;-68
2021/04/24 02:12:03;;;;;;;;;;;;;;;2.47;100.00;101670.16;5091900;28;19935;-68
2021/04/24 02:14:29;;;;;;;;;;;;;;;2.50;100.00;101663.84;5091244;28;19956;-69
2021/04/24 02:16:55;;;;;;;;;;;;;;;2.48;100.00;101669.22;5090780;28;20310;-68
2021/04/24 02:19:21;;;;;;;;;;;;;;;2.46;100.00;101667.50;5091748;28;19970;-68
2021/04/24 02:21:47;;;;;;;;;;;;;;;2.41;100.00;101670.34;5091774;28;19974;-69
2021/04/24 02:24:13;;;;;;;;;;;;;;;2.39;100.00;101664.16;5091349;28;19975;-69
2021/04/24 02:26:38;;;;;;;;;;;;;;;2.37;100.00;101666.03;5091254;28;19924;-68
2021/04/24 02:29:05;;;;;;;;;;;;;;;2.38;100.00;101667.78;5091631;28;19924;-69
2021/04/24 02:31:31;;;;;;;;;;;;;;;2.39;100.00;101672.19;5073542;28;19924;-69
2021/04/24 02:33:57;;;;;;;;;;;;;;;2.38;100.00;101665.09;5091064;28;20458;-69
2021/04/24 02:36:22;;;;;;;;;;;;;;;2.36;100.00;101672.28;5091305;28;19935;-69
2021/04/24 02:38:50;;;;;;;;;;;;;;;2.30;100.00;101672.50;5091475;28;20011;-68
2021/04/24 02:41:16;;;;;;;;;;;;;;;2.29;100.00;101671.63;5091318;28;19925;-68
2021/04/24 02:43:42;;;;;;;;;;;;;;;2.26;100.00;101673.50;5091024;28;20121;-68
2021/04/24 02:46:09;;;;;;;;;;;;;;;2.23;100.00;101670.94;5090929;28;19924;-68
2021/04/24 02:48:34;;;;;;;;;;;;;;;2.20;100.00;101671.03;5091464;28;19925;-69
2021/04/24 02:51:00;;;;;;;;;;;;;;;2.21;100.00;101664.75;5091135;28;20406;-68
2021/04/24 02:53:26;;;;;;;;;;;;;;;2.19;100.00;101659.44;5091208;28;19954;-68
2021/04/24 02:55:52;;;;;;;;;;;;;;;2.17;100.00;101656.81;5091107;28;20379;-69
2021/04/24 02:58:18;;;;;;;;;;;;;;;2.14;100.00;101651.53;5091031;28;19924;-68
2021/04/24 03:00:44;;;;;;;;;;;;;;;2.13;100.00;101657.81;5091240;28;20041;-68
2021/04/24 03:03:12;;;;;;;;;;;;;;;2.13;100.00;101655.16;5072332;28;20349;-68
2021/04/24 03:05:39;;;;;;;;;;;;;;;2.10;100.00;101660.59;5090895;28;20300;-68
2021/04/24 03:08:06;;;;;;;;;;;;;;;2.06;100.00;101660.72;5091077;28;19924;-68
2021/04/24 03:10:32;;;;;;;;;;;;;;;2.04;100.00;101657.25;5091280;28;19971;-68
2021/04/24 03:12:58;;;;;;;;;;;;;;;2.00;100.00;101656.44;5090863;28;20371;-68
2021/04/24 03:15:23;;;;;;;;;;;;;;;1.97;100.00;101656.56;5090336;28;19931;-68
2021/04/24 03:17:50;;;;;;;;;;;;;;;1.92;100.00;101661.16;5091256;28;20473;-68
2021/04/24 03:20:17;;;;;;;;;;;;;;;1.85;100.00;101657.78;5090954;28;19989;-68
2021/04/24 03:22:43;;;;;;;;;;;;;;;1.76;100.00;101653.56;5090545;28;19924;-69
2021/04/24 03:25:09;;;;;;;;;;;;;;;1.68;100.00;101650.25;5090611;28;19924;-68
2021/04/24 03:27:35;;;;;;;;;;;;;;;1.55;100.00;101647.06;5090906;28;19924;-69
2021/04/24 03:30:02;;;;;;;;;;;;;;;1.44;100.00;101658.09;5094805;28;19924;-69
2021/04/24 03:32:28;;;;;;;;;;;;;;;1.31;100.00;101644.16;5094615;28;19923;-68
2021/04/24 03:34:54;;;;;;;;;;;;;;;1.23;100.00;101651.53;5095047;28;19978;-68
2021/04/24 03:37:20;;;;;;;;;;;;;;;1.17;100.00;101647.19;5094665;28;20406;-69
2021/04/24 03:39:46;;;;;;;;;;;;;;;1.08;100.00;101644.81;5094947;28;20307;-68
2021/04/24 03:42:13;;;;;;;;;;;;;;;1.02;100.00;101650.31;5094495;28;19928;-68
2021/04/24 03:44:39;;;;;;;;;;;;;;;0.92;100.00;101641.66;5094078;28;19928;-68
2021/04/24 03:47:05;;;;;;;;;;;;;;;0.89;100.00;101638.19;5094625;28;20019;-68
2021/04/24 03:49:31;;;;;;;;;;;;;;;0.80;100.00;101642.84;5094634;28;19924;-68
2021/04/24 03:51:57;;;;;;;;;;;;;;;0.77;100.00;101650.06;5076482;28;20369;-68
2021/04/24 03:54:23;;;;;;;;;;;;;;;0.74;100.00;101655.50;5094487;28;19935;-68
2021/04/24 03:56:49;;;;;;;;;;;;;;;0.73;100.00;101653.75;5094284;28;19924;-68
2021/04/24 03:59:15;;;;;;;;;;;;;;;0.71;100.00;101659.13;5094273;28;19943;-68
2021/04/24 04:01:41;;;;;;;;;;;;;;;0.65;100.00;101656.59;5076240;28;20246;-68
2021/04/24 04:04:07;;;;;;;;;;;;;;;0.67;100.00;101662.78;5094008;28;20354;-68
2021/04/24 04:06:34;;;;;;;;;;;;;;;0.70;100.00;101665.38;5093494;28;22458;-67
2021/04/24 04:09:00;;;;;;;;;;;;;;;0.68;100.00;101661.84;5076218;28;19924;-69
2021/04/24 04:11:27;;;;;;;;;;;;;;;0.69;100.00;101662.75;5094356;28;19965;-69
2021/04/24 04:13:52;;;;;;;;;;;;;;;0.74;100.00;101668.88;5093332;28;20322;-68
2021/04/24 04:16:18;;;;;;;;;;;;;;;0.77;100.00;101660.75;5093655;28;19928;-68
2021/04/24 04:18:44;;;;;;;;;;;;;;;0.82;100.00;101667.75;5094099;28;19931;-68
2021/04/24 04:21:10;;;;;;;;;;;;;;;0.86;100.00;101659.66;5093905;28;19990;-69
2021/04/24 04:23:36;;;;;;;;;;;;;;;0.89;100.00;101659.56;5093264;28;20049;-68
2021/04/24 04:26:02;;;;;;;;;;;;;;;0.93;100.00;101663.91;5093812;28;19936;-68
2021/04/24 04:28:29;;;;;;;;;;;;;;;0.93;100.00;101667.47;5094123;28;19924;-68
2021/04/24 04:30:55;;;;;;;;;;;;;;;0.93;100.00;101667.47;5093967;28;19969;-69
2021/04/24 04:33:21;;;;;;;;;;;;;;;0.93;100.00;101669.28;5093114;28;19977;-69
2021/04/24 04:35:47;;;;;;;;;;;;;;;0.96;100.00;101674.53;5093239;28;19924;-68
2021/04/24 04:38:13;;;;;;;;;;;;;;;0.99;100.00;101675.34;5093789;28;19977;-69
2021/04/24 04:40:40;;;;;;;;;;;;;;;1.01;100.00;101677.97;5092999;28;19931;-68
2021/04/24 04:43:06;;;;;;;;;;;;;;;1.08;100.00;101684.94;5090692;28;20395;-68
2021/04/24 04:45:33;;;;;;;;;;;;;;;1.14;100.00;101673.19;5092497;28;19932;-68
2021/04/24 04:47:59;;;;;;;;;;;;;;;1.23;100.00;101677.38;5082256;28;20336;-68
2021/04/24 04:50:26;;;;;;;;;;;;;;;1.34;100.00;101678.00;5093223;28;19924;-68
2021/04/24 04:52:52;;;;;;;;;;;;;;;1.47;100.00;101682.06;5092728;28;19931;-68
2021/04/24 04:55:18;;;;;;;;;;;;;;;1.57;100.00;101681.81;5092974;28;19932;-68
2021/04/24 04:57:45;;;;;;;;;;;;;;;1.66;100.00;101682.44;5092833;28;19924;-69
2021/04/24 05:00:12;;;;;;;;;;;;;;;1.78;100.00;101683.00;5092458;28;19924;-68
2021/04/24 05:02:40;;;;;;;;;;;;;;;1.86;100.00;101693.47;5091639;28;19924;-72
2021/04/24 05:05:06;;;;;;;;;;;;;;;1.96;100.00;101697.63;5091750;28;19924;-68
2021/04/24 05:07:32;;;;;;;;;;;;;;;2.03;100.00;101699.19;5090147;28;19932;-68
2021/04/24 05:09:58;;;;;;;;;;;;;;;2.08;100.00;101697.25;5074899;28;19924;-68
2021/04/24 05:12:24;;;;;;;;;;;;;;;2.11;100.00;101694.50;5074691;28;20339;-68
2021/04/24 05:14:50;;;;;;;;;;;;;;;2.17;100.00;101698.81;5093249;28;19969;-69
2021/04/24 05:17:16;;;;;;;;;;;;;;;2.24;100.00;101702.16;5092743;28;19955;-70
2021/04/24 05:19:42;;;;;;;;;;;;;;;2.33;100.00;101700.06;5092727;28;20371;-68
2021/04/24 05:22:08;;;;;;;;;;;;;;;2.58;100.00;101707.34;5089400;28;19931;-69
2021/04/24 05:24:34;;;;;;;;;;;;;;;2.84;100.00;101703.78;5092421;28;19924;-71
2021/04/24 05:27:01;;;;;;;;;;;;;;;3.14;100.00;101702.81;5091733;28;19979;-68
2021/04/24 05:29:27;;;;;;;;;;;;;;;3.46;100.00;101700.78;5092812;28;20302;-68
2021/04/24 05:31:52;;;;;;;;;;;;;;;3.80;100.00;101705.81;5085044;28;19932;-68
2021/04/24 05:34:18;;;;;;;;;;;;;;;4.02;100.00;101697.84;5059564;28;19928;-69
2021/04/24 05:36:45;;;;;;;;;;;;;;;4.22;100.00;101709.59;5090353;28;20030;-69
2021/04/24 05:39:11;;;;;;;;;;;;;;;4.41;100.00;101704.41;5092665;28;19962;-68
2021/04/24 05:41:37;;;;;;;;;;;;;;;4.68;100.00;101701.53;5073676;28;20322;-70
2021/04/24 05:44:03;;;;;;;;;;;;;;;4.84;100.00;101699.09;5073636;28;19928;-69
2021/04/24 05:46:29;;;;;;;;;;;;;;;5.24;100.00;101709.94;5091942;28;20387;-68
2021/04/24 05:48:55;;;;;;;;;;;;;;;5.46;100.00;101705.38;5092458;28;19977;-69
2021/04/24 05:51:21;;;;;;;;;;;;;;;5.85;100.00;101706.34;5073446;28;19982;-69
2021/04/24 05:53:50;;;;;;;;;;;;;;;6.06;100.00;101699.13;5090364;28;19927;-70
2021/04/24 05:56:16;;;;;;;;;;;;;;;6.09;100.00;101706.19;5092006;28;19939;-70
2021/04/24 05:58:42;;;;;;;;;;;;;;;6.42;100.00;101706.41;5092221;28;19937;-69
2021/04/24 06:01:08;;;;;;;;;;;;;;;6.38;100.00;101710.22;5092046;28;20407;-68
2021/04/24 06:03:35;;;;;;;;;;;;;;;6.41;100.00;101712.75;5090830;28;19925;-70
2021/04/24 06:06:00;;;;;;;;;;;;;;;5.94;100.00;101707.75;5091352;28;19924;-69
2021/04/24 06:08:26;;;;;;;;;;;;;;;6.08;100.00;101720.63;5079879;28;19924;-69
2021/04/24 06:10:53;;;;;;;;;;;;;;;6.70;100.00;101722.13;5071760;28;20244;-69
2021/04/24 06:13:19;;;;;;;;;;;;;;;7.14;100.00;101715.47;5071039;28;19988;-70
2021/04/24 06:15:45;;;;;;;;;;;;;;;7.04;100.00;101717.78;5071085;28;20326;-69
2021/04/24 06:18:11;;;;;;;;;;;;;;;7.93;100.00;101714.03;5053593;28;19924;-69
2021/04/24 06:20:36;;;;;;;;;;;;;;;8.24;100.00;101708.78;5071552;28;20357;-69
2021/04/24 06:23:02;;;;;;;;;;;;;;;8.40;100.00;101706.09;5076735;28;19928;-69
2021/04/24 06:25:28;;;;;;;;;;;;;;;8.94;100.00;101705.72;5091461;28;20010;-69
2021/04/24 06:27:55;;;;;;;;;;;;;;;9.59;100.00;101710.00;5091533;28;20383;-70
2021/04/24 06:30:21;;;;;;;;;;;;;;;9.89;100.00;101709.94;5091745;28;19969;-70
2021/04/24 06:32:48;;;;;;;;;;;;;;;9.87;100.00;101715.44;5091277;28;19924;-70
2021/04/24 06:35:15;;;;;;;;;;;;;;;9.74;100.00;101706.34;5072679;28;19928;-69
2021/04/24 06:37:41;;;;;;;;;;;;;;;9.48;100.00;101710.66;5091679;28;19993;-69
2021/04/24 06:40:08;;;;;;;;;;;;;;;8.98;100.00;101707.28;5091335;28;19924;-69
2021/04/24 06:42:34;;;;;;;;;;;;;;;9.76;100.00;101708.94;5091551;28;19934;-69
2021/04/24 06:45:00;;;;;;;;;;;;;;;10.66;100.00;101715.00;5091815;28;19924;-69
2021/04/24 06:47:26;;;;;;;;;;;;;;;11.28;96.03;101711.75;5091416;28;19966;-68
2021/04/24 06:49:52;;;;;;;;;;;;;;;11.02;95.02;101711.69;5091529;28;20115;-69
2021/04/24 06:52:18;;;;;;;;;;;;;;;10.43;95.21;101709.22;5090761;28;19977;-69
2021/04/24 06:54:44;;;;;;;;;;;;;;;10.43;97.40;101709.22;5090252;28;19946;-69
2021/04/24 06:57:10;;;;;;;;;;;;;;;10.17;100.00;101711.75;5090481;28;19928;-69
2021/04/24 06:59:36;;;;;;;;;;;;;;;9.69;100.00;101714.75;5091040;28;19924;-69
2021/04/24 07:02:02;;;;;;;;;;;;;;;9.92;100.00;101711.56;5091020;28;19924;-69
2021/04/24 07:04:28;;;;;;;;;;;;;;;9.89;99.06;101694.50;5090625;28;20029;-69
2021/04/24 07:06:54;;;;;;;;;;;;;;;10.66;97.94;101704.13;5072826;28;19937;-69
2021/04/24 07:09:20;;;;;;;;;;;;;;;11.12;93.98;101690.19;5091058;28;19932;-69
2021/04/24 07:11:46;;;;;;;;;;;;;;;11.22;89.00;101702.19;5091052;28;20398;-68
2021/04/24 07:14:12;;;;;;;;;;;;;;;12.15;86.50;101692.97;5090842;28;19932;-68
2021/04/24 07:16:38;;;;;;;;;;;;;;;11.75;82.76;101697.66;5090930;28;19928;-69
2021/04/24 07:19:35;;;;;;;;;;;;;;;11.60;82.30;101688.72;5091215;28;19924;-73
2021/04/24 07:22:02;;;;;;;;;;;;;;;11.91;81.50;101690.16;5090580;28;20403;-68
2021/04/24 07:24:28;;;;;;;;;;;;;;;11.58;81.19;101687.97;5090097;28;20022;-69
2021/04/24 07:26:54;;;;;;;;;;;;;;;12.22;78.84;101688.81;5090719;28;19928;-68
2021/04/24 07:29:20;;;;;;;;;;;;;;;12.10;76.59;101686.13;5090930;28;19943;-68
2021/04/24 07:31:46;;;;;;;;;;;;;;;11.26;75.14;101696.53;5090670;28;19970;-69
2021/04/24 07:34:12;;;;;;;;;;;;;;;11.02;82.96;101691.78;5090500;28;19924;-68
2021/04/24 07:36:38;;;;;;;;;;;;;;;10.17;88.80;101691.91;5072585;28;19954;-69
2021/04/24 07:39:06;;;;;;;;;;;;;;;9.97;91.44;101690.47;5090061;28;19923;-69
2021/04/24 07:41:32;;;;;;;;;;;;;;;11.41;85.28;101686.44;5090483;28;20019;-69
2021/04/24 07:43:58;;;;;;;;;;;;;;;11.29;79.42;101688.16;5089533;28;19993;-69
2021/04/24 07:46:23;;;;;;;;;;;;;;;12.23;76.74;101687.84;5072178;28;20390;-69
2021/04/24 07:48:49;;;;;;;;;;;;;;;12.44;73.72;101689.09;5072275;28;19932;-69
2021/04/24 07:51:15;;;;;;;;;;;;;;;12.58;69.18;101685.38;5090462;28;20277;-68
2021/04/24 07:53:42;;;;;;;;;;;;;;;12.75;67.24;101682.25;5090515;28;19928;-69
2021/04/24 07:56:09;;;;;;;;;;;;;;;12.83;67.22;101679.81;5089954;28;19924;-68
2021/04/24 07:58:35;;;;;;;;;;;;;;;12.88;61.94;101690.34;5090734;28;20464;-69
2021/04/24 08:01:01;;;;;;;;;;;;;;;12.08;64.56;101688.97;5090363;28;19983;-68
2021/04/24 08:03:27;;;;;;;;;;;;;;;11.93;68.32;101688.16;5090485;28;19924;-68
2021/04/24 08:05:53;;;;;;;;;;;;;;;12.34;65.92;101687.03;5090344;28;20362;-68
2021/04/24 08:08:18;;;;;;;;;;;;;;;12.10;65.92;101670.66;5090100;28;20393;-69
2021/04/24 08:10:44;;;;;;;;;;;;;;;12.26;65.18;101680.44;5090131;28;19978;-69
2021/04/24 08:13:11;;;;;;;;;;;;;;;11.50;70.61;101677.63;5083822;28;20460;-68
2021/04/24 08:15:37;;;;;;;;;;;;;;;11.77;70.57;101684.81;5106663;28;19928;-69
2021/04/24 08:18:03;;;;;;;;;;;;;;;12.23;70.00;101681.53;5109938;28;19935;-68
2021/04/24 08:20:28;;;;;;;;;;;;;;;12.28;64.15;101689.34;5093642;28;19924;-69
2021/04/24 08:22:54;;;;;;;;;;;;;;;12.99;61.29;101686.81;5093447;28;20024;-69
2021/04/24 08:25:20;;;;;;;;;;;;;;;13.90;57.59;101680.63;5092773;28;19932;-68
2021/04/24 08:27:46;;;;;;;;;;;;;;;14.17;55.74;101678.50;5075805;28;19928;-68
2021/04/24 08:30:14;;;;;;;;;;;;;;;14.79;51.19;101663.41;5093597;28;19924;-68
2021/04/24 08:32:41;;;;;;;;;;;;;;;13.75;54.26;101687.31;5074633;28;19954;-69
2021/04/24 08:35:07;;;;;;;;;;;;;;;14.13;52.67;101691.53;5074782;28;19947;-68
2021/04/24 08:37:34;;;;;;;;;;;;;;;13.78;50.38;101678.88;5093646;28;19932;-68
2021/04/24 08:40:00;;;;;;;;;;;;;;;14.37;51.46;101691.38;5089846;28;20027;-68
2021/04/24 08:42:27;;;;;;;;;;;;;;;14.22;50.85;101689.94;5091852;28;19955;-68
2021/04/24 08:44:52;;;;;;;;;;;;;;;13.53;52.23;101683.53;5090964;28;20303;-68
2021/04/24 08:47:20;;;;;;;;;;;;;;;12.79;53.20;101696.50;5092902;28;19924;-68
2021/04/24 08:49:46;;;;;;;;;;;;;;;12.70;56.50;101692.63;5092931;28;19960;-68
2021/04/24 08:52:12;;;;;;;;;;;;;;;12.42;56.38;101691.06;5093094;28;19928;-68
2021/04/24 08:54:38;;;;;;;;;;;;;;;12.27;55.51;101690.34;5093021;28;19977;-68
2021/04/24 08:57:04;;;;;;;;;;;;;;;12.01;56.12;101690.38;5092611;28;19977;-68
2021/04/24 08:59:31;;;;;;;;;;;;;;;11.50;58.87;101694.81;5093383;28;19932;-68
2021/04/24 09:01:57;;;;;;;;;;;;;;;11.01;59.20;101696.34;5074678;28;19924;-68
2021/04/24 09:04:23;;;;;;;;;;;;;;;10.83;64.05;101695.72;5092540;28;19924;-68
2021/04/24 09:06:49;;;;;;;;;;;;;;;10.98;69.41;101702.00;5092957;28;19931;-68
2021/04/24 09:09:15;;;;;;;;;;;;;;;10.50;67.05;101706.97;5092976;28;20018;-69
2021/04/24 09:11:42;;;;;;;;;;;;;;;10.69;72.58;101709.38;5093371;28;19946;-69
2021/04/24 09:14:09;;;;;;;;;;;;;;;10.84;67.53;101702.06;5092711;28;19959;-69
2021/04/24 09:16:35;;;;;;;;;;;;;;;11.84;62.75;101692.44;5092815;28;19931;-69
2021/04/24 09:19:02;;;;;;;;;;;;;;;11.44;62.17;101687.09;5092896;28;19962;-69
2021/04/24 09:21:30;;;;;;;;;;;;;;;10.88;63.00;101699.00;5074540;28;20019;-69
2021/04/24 09:23:56;;;;;;;;;;;;;;;11.35;67.00;101709.47;5074669;28;20310;-69
2021/04/24 09:26:23;;;;;;;;;;;;;;;11.70;64.94;101693.44;5091662;28;19928;-69
2021/04/24 09:28:57;;;;;;;;;;;;;;;11.77;60.65;101692.97;5092693;28;19924;-68
2021/04/24 09:31:24;;;;;;;;;;;;;;;11.32;62.32;101705.13;5092425;28;19928;-69
2021/04/24 09:33:51;;;;;;;;;;;;;;;11.01;65.07;101701.78;5091949;28;19939;-69
2021/04/24 09:36:17;;;;;;;;;;;;;;;11.38;60.10;101691.13;5092491;28;20308;-69
2021/04/24 09:38:45;;;;;;;;;;;;;;;11.09;63.12;101700.38;5092254;28;20028;-69
2021/04/24 09:41:13;;;;;;;;;;;;;;;11.62;62.96;101687.63;5092184;28;19931;-69
2021/04/24 09:43:45;;;;;;;;;;;;;;;11.82;60.77;101691.66;5091874;28;19924;-69
2021/04/24 09:46:13;;;;;;;;;;;;;;;12.16;60.82;101686.56;5091977;28;19924;-68
2021/04/24 09:48:39;;;;;;;;;;;;;;;11.83;58.84;101684.38;5092209;28;19982;-69
2021/04/24 09:51:11;;;;;;;;;;;;;;;11.42;59.38;101689.03;5092012;28;20384;-69
2021/04/24 09:53:37;;;;;;;;;;;;;;;11.20;60.84;101678.78;5092017;28;19924;-68
2021/04/24 09:56:04;;;;;;;;;;;;;;;10.46;62.65;101686.44;5091470;28;20442;-68
2021/04/24 09:58:31;;;;;;;;;;;;;;;10.54;66.99;101687.69;5092108;28;19993;-68
2021/04/24 10:00:58;;;;;;;;;;;;;;;10.43;64.72;101686.66;5091187;28;19924;-68
2021/04/24 10:03:33;;;;;;;;;;;;;;;10.54;65.66;101693.13;5090366;28;19928;-69
2021/04/24 10:06:19;;;;;;;;;;;;;;;10.43;66.09;101692.94;5091031;28;20383;-69
2021/04/24 10:08:45;;;;;;;;;;;;;;;10.50;67.23;101693.41;5091203;28;19991;-69
2021/04/24 10:11:24;;;;;;;;;;;;;;;11.02;66.59;101689.06;5090253;28;19939;-68
2021/04/24 10:13:50;;;;;;;;;;;;;;;11.25;62.89;101692.94;5091084;28;20083;-69
2021/04/24 10:16:31;;;;;;;;;;;;;;;11.29;63.38;101696.28;5091019;28;20404;-70
2021/04/24 10:18:57;;;;;;;;;;;;;;;10.97;58.24;101686.66;5090181;28;20341;-69
2021/04/24 10:21:23;;;;;;;;;;;;;;;10.81;61.74;101684.13;5090796;28;19924;-68
2021/04/24 10:23:49;;;;;;;;;;;;;;;10.76;62.00;101690.84;5091143;28;19967;-68
2021/04/24 10:26:15;;;;;;;;;;;;;;;10.94;61.39;101688.72;5090581;28;20256;-68
2021/04/24 10:28:42;;;;;;;;;;;;;;;10.74;62.59;101682.75;5091722;28;20336;-69
2021/04/24 10:31:08;;;;;;;;;;;;;;;10.79;62.00;101688.75;5091245;28;19940;-69
2021/04/24 10:33:34;;;;;;;;;;;;;;;10.91;63.66;101689.78;5090710;28;19931;-69
2021/04/24 10:36:00;;;;;;;;;;;;;;;11.18;65.66;101691.59;5072550;28;20019;-68
2021/04/24 10:38:26;;;;;;;;;;;;;;;11.08;65.89;101691.38;5090411;28;19963;-69
2021/04/24 10:40:52;;;;;;;;;;;;;;;10.94;66.69;101689.56;5090715;28;20366;-68
2021/04/24 10:43:20;;;;;;;;;;;;;;;11.03;67.31;101679.94;5090572;28;19924;-69
2021/04/24 10:45:46;;;;;;;;;;;;;;;11.40;68.28;101682.84;5090489;28;19978;-69
2021/04/24 10:48:21;;;;;;;;;;;;;;;11.44;63.44;101678.94;5090924;28;19997;-68
2021/04/24 10:50:48;;;;;;;;;;;;;;;12.08;62.44;101678.09;5090779;28;19924;-69
2021/04/24 10:53:18;;;;;;;;;;;;;;;13.19;57.48;101677.97;5086322;28;20440;-69
2021/04/24 10:55:44;;;;;;;;;;;;;;;13.39;54.60;101664.69;5089498;28;19924;-69
2021/04/24 10:58:14;;;;;;;;;;;;;;;12.98;54.18;101674.19;5071078;28;20375;-69
2021/04/24 11:00:57;;;;;;;;;;;;;;;12.17;51.31;101671.97;5072160;28;19932;-70
2021/04/24 11:03:46;;;;;;;;;;;;;;;11.13;54.35;101674.75;5088655;28;19928;-69
2021/04/24 11:06:12;;;;;;;;;;;;;;;10.83;60.03;101682.16;5086180;28;20023;-69
2021/04/24 11:08:38;;;;;;;;;;;;;;;10.86;63.25;101687.41;5090395;28;20294;-69
2021/04/24 11:11:05;;;;;;;;;;;;;;;10.80;63.20;101679.66;5088609;28;20299;-69
2021/04/24 11:13:34;;;;;;;;;;;;;;;10.90;63.33;101685.31;5088945;28;19928;-69
2021/04/24 11:16:02;;;;;;;;;;;;;;;10.75;62.99;101684.50;5089224;28;19954;-69
2021/04/24 11:18:28;;;;;;;;;;;;;;;10.56;60.61;101679.44;5089742;28;20383;-69
2021/04/24 11:20:55;;;;;;;;;;;;;;;10.26;61.74;101679.56;5089199;28;19967;-69
2021/04/24 11:23:40;;;;;;;;;;;;;;;10.14;59.12;101671.25;5055183;28;19935;-70
2021/04/24 11:26:07;;;;;;;;;;;;;;;11.13;59.44;101680.19;5090621;28;19931;-69
2021/04/24 11:28:34;;;;;;;;;;;;;;;12.72;55.60;101672.44;5090819;28;19924;-69
2021/04/24 11:31:03;;;;;;;;;;;;;;;14.12;47.14;101662.50;5090150;28;19924;-69
2021/04/24 11:33:30;;;;;;;;;;;;;;;14.82;43.35;101659.56;5090297;28;19931;-69
2021/04/24 11:36:14;;;;;;;;;;;;;;;14.05;41.71;101656.66;5072020;28;19932;-69
2021/04/24 11:39:04;;;;;;;;;;;;;;;13.89;43.75;101659.75;5091050;28;20026;-68
2021/04/24 11:41:31;;;;;;;;;;;;;;;13.01;45.05;101666.63;5090128;28;19928;-69
2021/04/24 11:43:57;;;;;;;;;;;;;;;12.99;49.31;101670.47;5089998;28;19924;-69
2021/04/24 11:46:33;;;;;;;;;;;;;;;12.72;48.80;101656.09;5090223;28;19924;-70
2021/04/24 11:49:01;;;;;;;;;;;;;;;11.94;49.33;101667.28;5090442;28;19978;-70
2021/04/24 11:51:31;;;;;;;;;;;;;;;11.69;50.28;101674.47;5093852;28;19931;-69
2021/04/24 11:53:57;;;;;;;;;;;;;;;11.61;53.63;101672.31;5093319;28;20436;-69
2021/04/24 11:56:23;;;;;;;;;;;;;;;11.53;52.79;101670.13;5093339;28;19930;-69
2021/04/24 11:58:49;;;;;;;;;;;;;;;12.06;51.10;101669.16;5093105;28;20537;-69
2021/04/24 12:01:18;;;;;;;;;;;;;;;13.27;46.56;101654.69;5092059;28;19928;-68
2021/04/24 12:03:45;;;;;;;;;;;;;;;14.37;41.71;101655.03;5092124;28;20100;-69
2021/04/24 12:06:10;;;;;;;;;;;;;;;14.72;40.89;101643.94;5092621;28;19985;-68
2021/04/24 12:08:36;;;;;;;;;;;;;;;14.12;39.51;101651.56;5092631;28;20418;-68
2021/04/24 12:11:08;;;;;;;;;;;;;;;13.67;39.66;101651.56;5074261;28;19985;-68
2021/04/24 12:13:34;;;;;;;;;;;;;;;13.54;42.17;101646.25;5093746;28;19970;-69
2021/04/24 12:16:00;;;;;;;;;;;;;;;13.10;41.93;101654.16;5093563;28;19963;-68
2021/04/24 12:18:28;;;;;;;;;;;;;;;13.15;41.86;101651.94;5093673;28;20383;-68
2021/04/24 12:20:55;;;;;;;;;;;;;;;12.98;43.72;101652.38;5093978;28;19928;-68
2021/04/24 12:23:21;;;;;;;;;;;;;;;12.99;44.77;101648.66;5075150;28;20312;-69
2021/04/24 12:25:47;;;;;;;;;;;;;;;13.07;43.69;101651.66;5093861;28;19931;-68
2021/04/24 12:28:15;;;;;;;;;;;;;;;13.04;44.53;101647.31;5093288;28;20409;-69
2021/04/24 12:30:42;;;;;;;;;;;;;;;12.97;45.58;101642.44;5093587;28;19924;-68
2021/04/24 12:33:09;;;;;;;;;;;;;;;13.03;43.79;101642.84;5075008;28;19971;-69
2021/04/24 12:35:35;;;;;;;;;;;;;;;12.87;43.73;101645.88;5092983;28;20033;-68